createdAt,value
2024-04-09T00:01:36.792Z,4.80
2024-04-09T00:04:03.888Z,4.80
2024-04-09T00:06:31.871Z,4.77
2024-04-09T00:08:59.268Z,4.70
2024-04-09T00:11:26.430Z,5.00
2024-04-09T00:13:55.157Z,4.37
2024-04-09T00:16:30.614Z,4.77
2024-04-09T00:18:58.611Z,4.20
2024-04-09T00:21:27.260Z,4.40
2024-04-09T00:23:58.165Z,4.10
2024-04-09T00:26:25.643Z,4.50
2024-04-09T00:28:52.874Z,4.47
2024-04-09T00:31:22.642Z,4.77
2024-04-09T00:33:51.034Z,4.70
2024-04-09T00:36:18.470Z,4.27
2024-04-09T00:38:48.772Z,4.80
2024-04-09T00:41:17.321Z,5.10
2024-04-09T00:43:44.758Z,4.93
2024-04-09T00:46:11.953Z,4.90
2024-04-09T00:48:40.028Z,4.27
2024-04-09T00:51:08.280Z,5.10
2024-04-09T00:53:38.230Z,4.47
2024-04-09T00:56:07.305Z,4.37
2024-04-09T00:58:36.462Z,4.23
2024-04-09T01:01:05.466Z,4.70
2024-04-09T01:03:33.791Z,5.00
2024-04-09T01:06:01.204Z,5.10
2024-04-09T01:08:28.284Z,5.00
2024-04-09T01:10:55.460Z,4.10
2024-04-09T01:13:22.670Z,4.53
2024-04-09T01:15:49.579Z,4.73
2024-04-09T01:18:16.846Z,4.60
2024-04-09T01:20:44.036Z,5.17
2024-04-09T01:23:11.807Z,4.40
2024-04-09T01:25:39.129Z,4.17
2024-04-09T01:28:06.140Z,4.53
2024-04-09T01:30:33.990Z,5.30
2024-04-09T01:33:03.298Z,4.60
2024-04-09T01:35:31.313Z,5.30
2024-04-09T01:37:59.294Z,5.40
2024-04-09T01:40:26.395Z,5.03
2024-04-09T01:42:53.246Z,5.10
2024-04-09T01:45:20.292Z,4.77
2024-04-09T01:47:47.582Z,5.13
2024-04-09T01:50:15.901Z,5.10
2024-04-09T01:52:44.237Z,4.80
2024-04-09T01:55:11.668Z,5.30
2024-04-09T01:57:38.732Z,5.33
2024-04-09T02:00:13.613Z,5.33
2024-04-09T02:02:43.805Z,5.03
2024-04-09T02:05:13.901Z,6.03
2024-04-09T02:07:42.216Z,5.10
2024-04-09T02:10:11.878Z,5.17
2024-04-09T02:12:41.928Z,4.53
2024-04-09T02:15:09.339Z,5.33
2024-04-09T02:17:36.759Z,5.10
2024-04-09T02:20:05.422Z,5.53
2024-04-09T02:22:33.193Z,5.07
2024-04-09T02:25:00.271Z,4.40
2024-04-09T02:27:28.351Z,5.70
2024-04-09T02:29:56.428Z,4.50
2024-04-09T02:32:24.685Z,5.90
2024-04-09T02:34:51.632Z,5.03
2024-04-09T02:37:18.756Z,4.77
2024-04-09T02:39:45.996Z,5.50
2024-04-09T02:42:15.015Z,5.37
2024-04-09T02:44:42.399Z,5.27
2024-04-09T02:47:09.757Z,5.10
2024-04-09T02:49:36.650Z,5.47
2024-04-09T02:52:04.399Z,4.83
2024-04-09T02:54:31.475Z,5.20
2024-04-09T02:56:59.419Z,5.23
2024-04-09T02:59:26.640Z,5.00
2024-04-09T03:01:53.698Z,5.63
2024-04-09T03:04:20.865Z,4.83
2024-04-09T03:06:48.151Z,5.37
2024-04-09T03:09:15.384Z,5.83
2024-04-09T03:11:42.320Z,5.23
2024-04-09T03:14:13.336Z,5.03
2024-04-09T03:16:40.735Z,5.43
2024-04-09T03:19:07.878Z,5.33
2024-04-09T03:21:36.037Z,5.40
2024-04-09T03:24:03.454Z,5.63
2024-04-09T03:26:30.441Z,4.50
2024-04-09T03:28:57.793Z,4.30
2024-04-09T03:31:27.198Z,4.10
2024-04-09T03:33:54.388Z,4.47
2024-04-09T03:36:21.912Z,4.50
2024-04-09T03:38:49.127Z,3.93
2024-04-09T03:41:16.114Z,3.40
2024-04-09T03:43:43.191Z,4.17
2024-04-09T03:46:14.948Z,3.83
2024-04-09T03:48:45.638Z,4.20
2024-04-09T03:51:15.609Z,4.47
2024-04-09T03:53:43.587Z,4.07
2024-04-09T03:56:10.991Z,3.83
2024-04-09T03:58:46.993Z,4.13
2024-04-09T04:01:14.378Z,3.73
2024-04-09T04:03:43.106Z,4.00
2024-04-09T04:06:10.612Z,4.67
2024-04-09T04:08:40.320Z,4.00
2024-04-09T04:11:08.927Z,4.50
2024-04-09T04:13:37.265Z,3.83
2024-04-09T04:16:08.762Z,4.53
2024-04-09T04:18:40.773Z,4.20
2024-04-09T04:21:12.091Z,4.70
2024-04-09T04:23:43.192Z,4.13
2024-04-09T04:26:13.076Z,4.57
2024-04-09T04:28:44.238Z,5.40
2024-04-09T04:31:13.462Z,4.33
2024-04-09T04:33:41.713Z,5.90
2024-04-09T04:36:11.909Z,4.80
2024-04-09T04:38:41.708Z,5.17
2024-04-09T04:41:08.893Z,4.33
2024-04-09T04:43:37.705Z,4.60
2024-04-09T04:46:11.530Z,4.20
2024-04-09T04:48:39.658Z,3.90
2024-04-09T04:51:07.745Z,4.30
2024-04-09T04:53:35.168Z,4.77
2024-04-09T04:56:02.472Z,4.23
2024-04-09T04:58:29.406Z,3.73
2024-04-09T05:00:56.825Z,4.23
2024-04-09T05:03:24.034Z,4.20
2024-04-09T05:05:51.138Z,4.03
2024-04-09T05:08:18.811Z,3.97
2024-04-09T05:10:46.028Z,4.60
2024-04-09T05:13:12.932Z,3.80
2024-04-09T05:15:40.010Z,4.13
2024-04-09T05:18:08.719Z,4.37
2024-04-09T05:20:37.413Z,4.10
2024-04-09T05:23:05.372Z,4.07
2024-04-09T05:25:34.711Z,4.87
2024-04-09T05:28:01.982Z,4.47
2024-04-09T05:30:29.217Z,4.10
2024-04-09T05:32:56.481Z,3.97
2024-04-09T05:35:23.973Z,4.20
2024-04-09T05:37:51.426Z,4.33
2024-04-09T05:40:19.073Z,5.03
2024-04-09T05:42:48.735Z,4.30
2024-04-09T05:45:19.349Z,4.77
2024-04-09T05:47:46.559Z,5.23
2024-04-09T05:50:14.927Z,4.77
2024-04-09T05:52:42.140Z,5.10
2024-04-09T05:55:10.145Z,4.70
2024-04-09T05:57:41.752Z,4.40
2024-04-09T06:00:12.973Z,4.43
2024-04-09T06:02:46.198Z,5.07
2024-04-09T06:05:13.134Z,4.60
2024-04-09T06:07:40.074Z,3.87
2024-04-09T06:10:07.535Z,4.93
2024-04-09T06:12:34.710Z,4.80
2024-04-09T06:15:02.096Z,4.70
2024-04-09T06:17:30.179Z,4.50
2024-04-09T06:19:59.988Z,5.20
2024-04-09T06:22:27.171Z,5.10
2024-04-09T06:24:54.382Z,4.60
2024-04-09T06:27:21.633Z,4.53
2024-04-09T06:29:49.180Z,5.13
2024-04-09T06:32:16.434Z,4.33
2024-04-09T06:34:43.817Z,4.70
2024-04-09T06:37:11.121Z,4.90
2024-04-09T06:39:38.909Z,4.30
2024-04-09T06:42:06.162Z,4.30
2024-04-09T06:44:33.742Z,4.93
2024-04-09T06:47:01.160Z,4.37
2024-04-09T06:49:28.336Z,4.50
2024-04-09T06:51:55.399Z,4.47
2024-04-09T06:54:23.015Z,4.83
2024-04-09T06:56:50.288Z,5.60
2024-04-09T06:59:17.614Z,4.87
2024-04-09T07:01:44.914Z,3.90
2024-04-09T07:04:12.199Z,4.17
2024-04-09T07:06:39.740Z,8.40
2024-04-09T07:09:07.778Z,4.93
2024-04-09T07:11:35.153Z,3.90
2024-04-09T07:14:02.375Z,4.53
2024-04-09T07:16:29.978Z,3.30
2024-04-09T07:18:57.026Z,4.03
2024-04-09T07:21:24.048Z,3.77
2024-04-09T07:23:51.169Z,4.07
2024-04-09T07:26:18.322Z,3.80
2024-04-09T07:28:47.297Z,3.80
2024-04-09T07:31:16.011Z,3.72
2024-04-09T07:33:43.414Z,3.55
2024-04-09T07:36:10.629Z,3.33
2024-04-09T07:38:37.720Z,3.47
2024-04-09T07:41:04.680Z,4.40
2024-04-09T07:43:35.164Z,4.60
2024-04-09T07:46:06.290Z,4.63
2024-04-09T07:48:33.557Z,4.82
2024-04-09T07:51:01.625Z,5.05
2024-04-09T07:53:28.830Z,4.57
2024-04-09T07:55:56.266Z,5.20
2024-04-09T07:58:23.630Z,4.65
2024-04-09T08:00:52.779Z,4.93
2024-04-09T08:03:20.919Z,4.90
2024-04-09T08:05:48.296Z,4.88
2024-04-09T08:08:16.009Z,5.15
2024-04-09T08:10:45.909Z,5.32
2024-04-09T08:13:12.978Z,4.88
2024-04-09T08:15:40.906Z,5.15
2024-04-09T08:18:08.132Z,4.75
2024-04-09T08:20:36.780Z,5.13
2024-04-09T08:23:05.542Z,5.35
2024-04-09T08:25:32.999Z,5.07
2024-04-09T08:28:03.439Z,4.88
2024-04-09T08:30:30.863Z,5.32
2024-04-09T08:32:58.176Z,4.65
2024-04-09T08:35:25.253Z,4.55
2024-04-09T08:37:52.277Z,4.57
2024-04-09T08:40:20.930Z,4.43
2024-04-09T08:42:53.750Z,4.20
2024-04-09T08:45:24.864Z,4.05
2024-04-09T08:47:53.211Z,4.13
2024-04-09T08:50:21.147Z,4.20
2024-04-09T08:52:49.001Z,4.65
2024-04-09T08:55:20.568Z,3.85
2024-04-09T08:57:49.852Z,3.90
2024-04-09T09:00:20.236Z,4.97
2024-04-09T09:02:47.396Z,4.60
2024-04-09T09:05:21.328Z,5.85
2024-04-09T09:08:06.342Z,5.13
2024-04-09T09:10:35.306Z,5.40
2024-04-09T09:13:04.644Z,5.27
2024-04-09T09:15:33.220Z,5.60
2024-04-09T09:18:00.653Z,5.23
2024-04-09T09:20:27.812Z,5.60
2024-04-09T09:22:55.845Z,3.43
2024-04-09T09:25:28.601Z,4.17
2024-04-09T09:28:11.871Z,3.10
2024-04-09T09:30:41.314Z,2.67
2024-04-09T09:33:31.025Z,2.70
2024-04-09T09:35:59.341Z,3.90
2024-04-09T09:38:30.125Z,4.27
2024-04-09T09:40:58.624Z,3.20
2024-04-09T09:43:27.985Z,3.13
2024-04-09T09:45:56.074Z,3.33
2024-04-09T09:48:27.546Z,3.53
2024-04-09T09:50:55.442Z,2.97
2024-04-09T09:53:24.723Z,2.90
2024-04-09T09:55:55.927Z,2.53
2024-04-09T09:58:28.931Z,2.37
2024-04-09T10:00:56.576Z,1.93
2024-04-09T10:03:27.028Z,1.90
2024-04-09T10:05:54.124Z,2.10
2024-04-09T10:08:22.564Z,2.20
2024-04-09T10:10:51.456Z,2.23
2024-04-09T10:13:25.314Z,2.30
2024-04-09T10:15:56.160Z,1.93
2024-04-09T10:18:33.608Z,2.00
2024-04-09T10:21:01.517Z,1.70
2024-04-09T10:23:28.522Z,1.83
2024-04-09T10:25:59.387Z,1.60
2024-04-09T10:28:33.718Z,1.10
2024-04-09T10:31:06.038Z,1.10
2024-04-09T10:33:35.773Z,1.40
2024-04-09T10:36:11.008Z,1.37
2024-04-09T10:38:45.508Z,1.20
2024-04-09T10:41:13.705Z,1.17
2024-04-09T10:43:41.819Z,1.17
2024-04-09T10:46:14.293Z,1.20
2024-04-09T10:48:44.121Z,1.60
2024-04-09T10:51:12.251Z,1.43
2024-04-09T10:53:39.758Z,1.90
2024-04-09T10:56:07.327Z,2.10
2024-04-09T10:58:38.918Z,1.77
2024-04-09T11:01:07.724Z,3.80
2024-04-09T11:03:35.936Z,2.70
2024-04-09T11:06:03.440Z,2.20
2024-04-09T11:08:33.134Z,1.77
2024-04-09T11:11:02.270Z,2.23
2024-04-09T11:13:30.986Z,2.40
2024-04-09T11:15:58.943Z,2.27
2024-04-09T11:18:26.670Z,2.47
2024-04-09T11:20:55.637Z,2.20
2024-04-09T11:23:24.435Z,2.93
2024-04-09T11:25:55.181Z,2.83
2024-04-09T11:28:24.345Z,3.70
2024-04-09T11:30:53.749Z,3.27
2024-04-09T11:33:22.465Z,2.40
2024-04-09T11:35:57.966Z,2.80
2024-04-09T11:38:25.039Z,2.40
2024-04-09T11:40:52.187Z,2.50
2024-04-09T11:43:21.862Z,2.53
2024-04-09T11:45:51.836Z,2.60
2024-04-09T11:48:20.862Z,2.20
2024-04-09T11:50:48.216Z,2.30
2024-04-09T11:53:20.232Z,2.10
2024-04-09T11:55:49.561Z,2.57
2024-04-09T11:58:17.637Z,2.07
2024-04-09T12:00:44.752Z,2.33
2024-04-09T12:03:11.990Z,2.03
2024-04-09T12:05:39.129Z,1.77
2024-04-09T12:08:07.354Z,1.97
2024-04-09T12:10:34.712Z,1.83
2024-04-09T12:13:01.947Z,1.60
2024-04-09T12:15:29.905Z,2.20
2024-04-09T12:17:57.268Z,1.70
2024-04-09T12:20:24.227Z,2.00
2024-04-09T12:22:51.286Z,1.80
2024-04-09T12:25:19.238Z,1.60
2024-04-09T12:27:46.297Z,1.50
2024-04-09T12:30:14.671Z,1.40
2024-04-09T12:32:42.603Z,1.67
2024-04-09T12:35:10.588Z,1.40
2024-04-09T12:37:37.692Z,1.60
2024-04-09T12:40:05.310Z,1.67
2024-04-09T12:42:32.497Z,1.83
2024-04-09T12:44:59.498Z,1.27
2024-04-09T12:47:26.799Z,1.57
2024-04-09T12:49:53.963Z,1.50
2024-04-09T12:52:21.414Z,1.63
2024-04-09T12:54:48.860Z,1.60
2024-04-09T12:57:16.743Z,1.70
2024-04-09T12:59:53.980Z,2.60
2024-04-09T13:02:31.029Z,1.87
2024-04-09T13:04:58.719Z,1.40
2024-04-09T13:07:26.223Z,3.10
2024-04-09T13:09:53.782Z,1.60
2024-04-09T13:12:20.861Z,1.70
2024-04-09T13:17:18.080Z,1.87
2024-04-09T13:19:45.166Z,1.27
2024-04-09T13:22:12.060Z,1.90
2024-04-09T13:24:39.177Z,2.53
2024-04-09T13:27:06.050Z,1.73
2024-04-09T13:29:33.053Z,1.07
2024-04-09T13:32:02.122Z,1.33
2024-04-09T13:34:30.808Z,1.40
2024-04-09T13:36:58.314Z,1.23
2024-04-09T13:39:25.344Z,3.07
2024-04-09T13:41:52.875Z,1.40
2024-04-09T13:44:20.053Z,1.33
2024-04-09T13:46:50.417Z,1.30
2024-04-09T13:49:18.212Z,1.40
2024-04-09T13:51:45.538Z,1.23
2024-04-09T13:54:12.859Z,1.00
2024-04-09T13:56:40.170Z,1.10
2024-04-09T13:59:07.652Z,0.97
2024-04-09T14:01:34.860Z,1.00
2024-04-09T14:04:05.635Z,0.90
2024-04-09T14:06:33.411Z,0.90
2024-04-09T14:09:00.808Z,1.10
2024-04-09T14:11:28.988Z,0.87
2024-04-09T14:13:58.236Z,1.10
2024-04-09T14:16:26.110Z,1.10
2024-04-09T14:18:53.935Z,1.00
2024-04-09T14:21:21.123Z,0.97
2024-04-09T14:23:48.662Z,1.00
2024-04-09T14:26:15.731Z,1.07
2024-04-09T14:28:43.590Z,0.93
2024-04-09T14:31:16.620Z,1.00
2024-04-09T14:33:46.133Z,1.13
2024-04-09T14:36:13.542Z,0.90
2024-04-09T14:38:40.421Z,1.00
2024-04-09T14:41:07.884Z,0.97
2024-04-09T14:43:36.860Z,1.10
2024-04-09T14:46:04.022Z,0.97
2024-04-09T14:48:31.423Z,1.00
2024-04-09T14:50:58.859Z,0.97
2024-04-09T14:53:25.884Z,1.10
2024-04-09T14:55:53.330Z,1.13
2024-04-09T14:58:20.447Z,1.00
2024-04-09T15:00:52.608Z,1.20
2024-04-09T15:03:21.380Z,1.23
2024-04-09T15:05:52.095Z,0.90
2024-04-09T15:08:19.000Z,1.13
2024-04-09T15:11:04.403Z,1.30
2024-04-09T15:13:33.094Z,0.90
2024-04-09T15:16:00.760Z,1.30
2024-04-09T15:18:28.871Z,1.03
2024-04-09T15:20:56.199Z,1.00
2024-04-09T15:23:23.403Z,1.47
2024-04-09T15:25:53.565Z,1.10
2024-04-09T15:28:20.835Z,1.30
2024-04-09T15:30:54.915Z,1.03
2024-04-09T15:33:23.767Z,1.67
2024-04-09T15:35:55.383Z,1.30
2024-04-09T15:38:23.072Z,1.03
2024-04-09T15:40:51.310Z,1.13
2024-04-09T15:43:19.733Z,0.97
2024-04-09T15:45:47.495Z,1.30
2024-04-09T15:48:15.007Z,1.33
2024-04-09T15:50:42.971Z,1.23
2024-04-09T15:53:13.242Z,1.00
2024-04-09T15:55:40.658Z,1.67
2024-04-09T15:58:07.752Z,1.50
2024-04-09T16:00:35.795Z,1.53
2024-04-09T16:03:04.471Z,1.13
2024-04-09T16:05:32.554Z,1.20
2024-04-09T16:07:59.833Z,1.30
2024-04-09T16:10:32.393Z,1.50
2024-04-09T16:13:00.202Z,1.60
2024-04-09T16:15:28.864Z,1.40
2024-04-09T16:17:56.643Z,1.40
2024-04-09T16:20:24.424Z,1.37
2024-04-09T16:22:51.625Z,1.37
2024-04-09T16:25:19.679Z,1.10
2024-04-09T16:27:46.574Z,1.13
2024-04-09T16:30:16.156Z,0.80
2024-04-09T16:32:44.248Z,1.10
2024-04-09T16:35:12.230Z,1.13
2024-04-09T16:37:41.237Z,1.60
2024-04-09T16:40:12.755Z,1.17
2024-04-09T16:42:39.777Z,1.83
2024-04-09T16:45:07.067Z,1.83
2024-04-09T16:47:34.408Z,1.70
2024-04-09T16:50:02.248Z,2.13
2024-04-09T16:52:29.234Z,1.27
2024-04-09T16:54:56.485Z,1.20
2024-04-09T16:57:32.976Z,1.50
2024-04-09T17:00:05.824Z,0.83
2024-04-09T17:02:32.751Z,1.20
2024-04-09T17:04:59.720Z,0.90
2024-04-09T17:07:27.221Z,1.90
2024-04-09T17:09:54.303Z,1.87
2024-04-09T17:12:21.448Z,2.20
2024-04-09T17:14:51.791Z,2.13
2024-04-09T17:17:18.942Z,2.30
2024-04-09T17:19:46.060Z,1.37
2024-04-09T17:22:13.220Z,1.50
2024-04-09T17:24:40.195Z,1.10
2024-04-09T17:27:07.059Z,1.57
2024-04-09T17:29:36.001Z,1.17
2024-04-09T17:32:03.243Z,0.93
2024-04-09T17:34:30.958Z,1.00
2024-04-09T17:36:58.538Z,0.90
2024-04-09T17:39:25.420Z,0.80
2024-04-09T17:41:52.283Z,1.20
2024-04-09T17:44:19.755Z,1.17
2024-04-09T17:46:46.743Z,1.77
2024-04-09T17:49:13.738Z,1.07
2024-04-09T17:51:42.548Z,1.77
2024-04-09T17:54:09.498Z,0.90
2024-04-09T17:56:36.451Z,1.13
2024-04-09T17:59:03.901Z,1.10
2024-04-09T18:01:30.841Z,0.90
2024-04-09T18:03:57.883Z,1.30
2024-04-09T18:06:26.919Z,1.20
2024-04-09T18:08:53.879Z,1.20
2024-04-09T18:11:21.034Z,0.90
2024-04-09T18:13:48.939Z,1.20
2024-04-09T18:16:16.068Z,1.10
2024-04-09T18:18:46.034Z,1.20
2024-04-09T18:21:14.189Z,1.40
2024-04-09T18:23:43.951Z,0.87
2024-04-09T18:26:12.500Z,1.50
2024-04-09T18:28:39.571Z,1.10
2024-04-09T18:31:06.575Z,1.00
2024-04-09T18:33:34.037Z,1.10
2024-04-09T18:36:01.920Z,0.93
2024-04-09T18:38:29.109Z,1.00
2024-04-09T18:41:03.986Z,1.00
2024-04-09T18:43:31.920Z,0.90
2024-04-09T18:45:59.128Z,1.10
2024-04-09T18:48:27.221Z,1.07
2024-04-09T18:50:54.512Z,1.03
2024-04-09T18:53:22.486Z,1.40
2024-04-09T18:55:49.910Z,1.10
2024-04-09T18:58:17.670Z,1.10
2024-04-09T19:00:45.789Z,1.00
2024-04-09T19:03:13.754Z,1.30
2024-04-09T19:05:42.560Z,0.90
2024-04-09T19:08:10.367Z,0.90
2024-04-09T19:10:38.870Z,1.60
2024-04-09T19:13:05.897Z,1.40
2024-04-09T19:15:33.088Z,1.57
2024-04-09T19:18:00.513Z,0.97
2024-04-09T19:20:27.898Z,1.10
2024-04-09T19:22:56.931Z,1.03
2024-04-09T19:25:24.626Z,0.90
2024-04-09T19:27:51.619Z,1.57
2024-04-09T19:30:19.161Z,1.27
2024-04-09T19:32:46.692Z,0.90
2024-04-09T19:35:13.896Z,0.83
2024-04-09T19:37:40.874Z,1.20
2024-04-09T19:40:12.243Z,1.13
2024-04-09T19:42:39.266Z,1.20
2024-04-09T19:45:06.840Z,1.07
2024-04-09T19:47:34.310Z,0.97
2024-04-09T19:50:01.778Z,1.10
2024-04-09T19:52:29.206Z,0.90
2024-04-09T19:54:56.534Z,0.97
2024-04-09T19:57:24.114Z,0.93
2024-04-09T19:59:51.692Z,0.90
2024-04-09T20:02:24.273Z,0.93
2024-04-09T20:04:55.113Z,0.97
2024-04-09T20:07:24.060Z,0.97
2024-04-09T20:09:51.082Z,0.90
2024-04-09T20:12:21.756Z,0.97
2024-04-09T20:14:52.004Z,0.70
2024-04-09T20:17:20.308Z,0.90
2024-04-09T20:19:47.697Z,0.97
2024-04-09T20:22:15.463Z,0.90
2024-04-09T20:24:44.380Z,0.97
2024-04-09T20:27:11.518Z,0.60
2024-04-09T20:29:38.850Z,0.80
2024-04-09T20:32:06.207Z,1.00
2024-04-09T20:34:33.319Z,0.80
2024-04-09T20:37:00.569Z,0.80
2024-04-09T20:39:27.647Z,1.17
2024-04-09T20:41:54.808Z,1.00
2024-04-09T20:44:22.361Z,1.33
2024-04-09T20:46:50.009Z,1.10
2024-04-09T20:49:17.317Z,1.03
2024-04-09T20:51:44.694Z,1.17
2024-04-09T20:54:11.840Z,2.10
2024-04-09T20:56:38.892Z,1.40
2024-04-09T20:59:06.333Z,1.23
2024-04-09T21:01:34.146Z,1.00
2024-04-09T21:04:03.280Z,0.93
2024-04-09T21:06:31.195Z,0.90
2024-04-09T21:08:58.214Z,1.27
2024-04-09T21:11:27.953Z,0.80
2024-04-09T21:13:55.322Z,1.20
2024-04-09T21:16:22.722Z,0.90
2024-04-09T21:18:50.281Z,1.20
2024-04-09T21:21:18.010Z,1.27
2024-04-09T21:23:45.246Z,0.90
2024-04-09T21:26:12.531Z,1.43
2024-04-09T21:28:40.049Z,1.20
2024-04-09T21:31:07.281Z,1.20
2024-04-09T21:33:34.615Z,1.10
2024-04-09T21:36:02.127Z,1.17
2024-04-09T21:38:29.288Z,1.20
2024-04-09T21:41:08.681Z,1.10
2024-04-09T21:43:36.098Z,1.90
2024-04-09T21:46:03.117Z,1.50
2024-04-09T21:48:30.436Z,1.70
2024-04-09T21:50:57.621Z,1.50
2024-04-09T21:53:24.819Z,1.40
2024-04-09T21:55:52.302Z,1.40
2024-04-09T21:58:19.463Z,1.40
2024-04-09T22:00:55.022Z,1.20
2024-04-09T22:03:22.807Z,1.23
2024-04-09T22:05:50.434Z,1.60
2024-04-09T22:08:17.827Z,1.50
2024-04-09T22:10:45.914Z,1.57
2024-04-09T22:13:13.084Z,1.53
2024-04-09T22:15:40.916Z,1.57
2024-04-09T22:18:08.214Z,1.70
2024-04-09T22:20:42.027Z,1.80
2024-04-09T22:23:15.088Z,1.73
2024-04-09T22:25:42.567Z,1.50
2024-04-09T22:28:09.729Z,1.70
2024-04-09T22:30:40.272Z,1.43
2024-04-09T22:33:07.974Z,1.60
2024-04-09T22:35:35.173Z,1.60
2024-04-09T22:38:03.450Z,1.57
2024-04-09T22:40:30.488Z,1.93
2024-04-09T22:42:57.445Z,2.17
2024-04-09T22:45:24.694Z,1.60
2024-04-09T22:47:53.106Z,2.10
2024-04-09T22:50:20.638Z,1.63
2024-04-09T22:52:48.042Z,1.80
2024-04-09T22:55:15.137Z,1.60
2024-04-09T22:57:42.020Z,1.93
2024-04-09T23:00:10.733Z,1.83
2024-04-09T23:02:38.057Z,1.93
2024-04-09T23:05:05.787Z,1.73
2024-04-09T23:07:32.944Z,2.13
2024-04-09T23:09:59.910Z,1.90
2024-04-09T23:12:28.653Z,1.50
2024-04-09T23:14:56.333Z,2.23
2024-04-09T23:17:23.380Z,1.93
2024-04-09T23:19:50.425Z,2.00
2024-04-09T23:22:17.896Z,2.07
2024-04-09T23:24:45.829Z,1.53
2024-04-09T23:27:12.816Z,1.87
2024-04-09T23:29:40.886Z,2.07
2024-04-09T23:32:07.896Z,2.07
2024-04-09T23:34:35.078Z,2.13
2024-04-09T23:37:02.169Z,1.93
2024-04-09T23:39:29.496Z,2.10
2024-04-09T23:42:04.961Z,1.83
2024-04-09T23:44:33.543Z,2.17
2024-04-09T23:47:01.642Z,2.03
2024-04-09T23:49:29.802Z,1.83
2024-04-09T23:51:56.944Z,1.87
2024-04-09T23:54:23.832Z,1.67
2024-04-09T23:56:51.098Z,2.07
2024-04-09T23:59:19.053Z,1.60
